Impacts METAR Board
IDs:

KGRK - Killeen-Ft Hood Rgnl, TX, US

Updated at: 2200 UTC 20 Jun 2019
Potential Impact None Slight Moderate High
Time 20/10Z 20/11Z 20/12Z 20/13Z 20/14Z 20/15Z 20/16Z 20/17Z 20/18Z 20/19Z 20/20Z 20/21Z 20/22Z
Temp74 74 74 76 79 81 85 88 90 92 94 95 96
Dewpt70 71 71 72 73 73 74 74 75 74 75 75 75
Altim29.78 29.81 29.81 29.84 29.83 29.83 29.81 29.81 29.81 29.80 29.79 29.77 29.76
VIS10 10 10 9 9 10 10 10 10 10 10 10 10
CIG-- 12 -- 9 10 15 -- -- -- -- -- -- --
CoverCLROVCFEWOVCOVCBKNFEWCLRFEWSCTFEWCLRCLR
FltCatVFRMVFRVFRIFRMVFRMVFRVFRVFRVFRVFRVFRVFRVFR
WX--------------------------
WDir130110130130140150170160160160150160170
WSpd10 15 16 11 13 17 13 17 13 12 12 12 12
WGst-- -- -- -- -- -- 24 -- 21 -- 19 20 --
Raw hourly METARs
KGRK 200958Z AUTO 13010KT 10SM CLR 24/21 A2978 RMK AO2 LTG DSNT NE SLP072 T02350209
KGRK 201058Z AUTO 11015KT 10SM OVC012 24/22 A2981 RMK AO2 LTG DSNT E SLP082 T02360215
KGRK 201158Z AUTO 13016KT 10SM FEW013 24/22 A2981 RMK AO2 SLP082 T02360217 10242 20216 53007
KGRK 201258Z AUTO 13011KT 9SM BKN009 OVC020 24/22 A2984 RMK AO2 CIG 009V020 BKN V SCT SLP093 T02430224 $
KGRK 201403Z AUTO 14013KT 9SM OVC010 26/23 A2983 RMK AO2 SLP090 $
KGRK 201458Z AUTO 15017KT 10SM BKN015 27/23 A2983 RMK AO2 PK WND 15026/41 BKN V OVC SLP090 T02740230 50006 $
KGRK 201558Z AUTO 17013G24KT 10SM FEW310 30/24 A2981 RMK AO2 SLP084 T02950235 $
KGRK 201658Z AUTO 16017KT 10SM CLR 31/24 A2981 RMK AO2 SLP084 T03120236 $
KGRK 201758Z AUTO 16013G21KT 10SM FEW320 32/24 A2981 RMK AO2 SLP083 T03230237 10325 20237 56006 $
KGRK 201858Z AUTO 16012KT 10SM FEW240 SCT320 SCT350 33/23 A2980 RMK AO2 LTG DSNT S SLP079 T03340233 $
KGRK 201958Z AUTO 15012G19KT 10SM FEW330 34/24 A2979 RMK AO2 SLP075 T03440240 $
KGRK 202058Z AUTO 16012G20KT 10SM CLR 35/24 A2977 RMK AO2 SLP068 T03490237 57013 $
KGRK 202158Z AUTO 17012KT 10SM CLR 35/24 A2976 RMK AO2 SLP065 T03530241 $



Page loaded:  22:08 UTC  |   03:08 PM Pacific  |   04:08 PM Mountain  |   05:08 PM Central  |   06:08 PM Eastern

 

ADVISORIES

FORECASTS

FORECASTS

OBSERVATIONS

USER TOOLS

ABOUT US